sensor_id;sensor_type;location;lat;lon;timestamp;temperature;humidity
18541;DHT22;9400;50.924;5.328;2023-05-07T00:01:35;15.70;99.90
18541;DHT22;9400;50.924;5.328;2023-05-07T00:04:03;15.70;99.90
18541;DHT22;9400;50.924;5.328;2023-05-07T00:06:32;15.70;99.90
18541;DHT22;9400;50.924;5.328;2023-05-07T00:09:00;15.70;99.90
18541;DHT22;9400;50.924;5.328;2023-05-07T00:11:27;15.80;99.90
18541;DHT22;9400;50.924;5.328;2023-05-07T00:13:55;15.90;99.90
18541;DHT22;9400;50.924;5.328;2023-05-07T00:16:23;16.00;99.90
18541;DHT22;9400;50.924;5.328;2023-05-07T00:18:52;16.00;99.90
18541;DHT22;9400;50.924;5.328;2023-05-07T00:21:19;16.00;99.90
18541;DHT22;9400;50.924;5.328;2023-05-07T00:23:48;16.10;99.90
18541;DHT22;9400;50.924;5.328;2023-05-07T00:26:16;16.20;99.90
18541;DHT22;9400;50.924;5.328;2023-05-07T00:28:43;16.20;99.90
18541;DHT22;9400;50.924;5.328;2023-05-07T00:31:11;16.10;99.90
18541;DHT22;9400;50.924;5.328;2023-05-07T00:33:39;16.00;99.90
18541;DHT22;9400;50.924;5.328;2023-05-07T00:36:06;16.00;99.90
18541;DHT22;9400;50.924;5.328;2023-05-07T00:38:34;16.00;99.90
18541;DHT22;9400;50.924;5.328;2023-05-07T00:41:03;16.10;99.90
18541;DHT22;9400;50.924;5.328;2023-05-07T00:43:31;16.10;99.90
18541;DHT22;9400;50.924;5.328;2023-05-07T00:45:58;16.00;99.90
18541;DHT22;9400;50.924;5.328;2023-05-07T00:48:26;16.00;99.90
18541;DHT22;9400;50.924;5.328;2023-05-07T00:50:54;16.00;99.90
18541;DHT22;9400;50.924;5.328;2023-05-07T00:53:22;16.00;99.90
18541;DHT22;9400;50.924;5.328;2023-05-07T00:55:49;16.00;99.90
18541;DHT22;9400;50.924;5.328;2023-05-07T00:58:20;16.00;99.90
18541;DHT22;9400;50.924;5.328;2023-05-07T01:00:48;16.00;99.90
18541;DHT22;9400;50.924;5.328;2023-05-07T01:03:15;15.90;99.90
18541;DHT22;9400;50.924;5.328;2023-05-07T01:05:44;15.90;99.90
18541;DHT22;9400;50.924;5.328;2023-05-07T01:08:13;15.90;99.90
18541;DHT22;9400;50.924;5.328;2023-05-07T01:10:41;15.90;99.90
18541;DHT22;9400;50.924;5.328;2023-05-07T01:13:09;16.00;99.90
18541;DHT22;9400;50.924;5.328;2023-05-07T01:15:39;15.90;99.90
18541;DHT22;9400;50.924;5.328;2023-05-07T01:18:07;15.80;99.90
18541;DHT22;9400;50.924;5.328;2023-05-07T01:20:36;15.90;99.90
18541;DHT22;9400;50.924;5.328;2023-05-07T01:23:06;15.90;99.90
18541;DHT22;9400;50.924;5.328;2023-05-07T01:25:34;15.80;99.90
18541;DHT22;9400;50.924;5.328;2023-05-07T01:28:02;15.70;99.90
18541;DHT22;9400;50.924;5.328;2023-05-07T01:30:30;15.70;99.90
18541;DHT22;9400;50.924;5.328;2023-05-07T01:33:01;15.60;99.90
18541;DHT22;9400;50.924;5.328;2023-05-07T01:35:34;15.60;99.90
18541;DHT22;9400;50.924;5.328;2023-05-07T01:38:05;15.60;99.90
18541;DHT22;9400;50.924;5.328;2023-05-07T01:40:33;15.50;99.90
18541;DHT22;9400;50.924;5.328;2023-05-07T01:43:02;15.60;99.90
18541;DHT22;9400;50.924;5.328;2023-05-07T01:45:30;15.50;99.90
18541;DHT22;9400;50.924;5.328;2023-05-07T01:48:00;15.40;99.90
18541;DHT22;9400;50.924;5.328;2023-05-07T01:50:28;15.40;99.90
18541;DHT22;9400;50.924;5.328;2023-05-07T01:52:57;15.40;99.90
18541;DHT22;9400;50.924;5.328;2023-05-07T01:55:26;15.40;99.90
18541;DHT22;9400;50.924;5.328;2023-05-07T01:57:53;15.40;99.90
18541;DHT22;9400;50.924;5.328;2023-05-07T02:00:22;15.50;99.90
18541;DHT22;9400;50.924;5.328;2023-05-07T02:02:49;15.50;99.90
18541;DHT22;9400;50.924;5.328;2023-05-07T02:05:19;15.50;99.90
18541;DHT22;9400;50.924;5.328;2023-05-07T02:07:46;15.40;99.90
18541;DHT22;9400;50.924;5.328;2023-05-07T02:10:14;15.40;99.90
18541;DHT22;9400;50.924;5.328;2023-05-07T02:12:43;15.50;99.90
18541;DHT22;9400;50.924;5.328;2023-05-07T02:15:11;15.50;99.90
18541;DHT22;9400;50.924;5.328;2023-05-07T02:17:58;15.50;99.90
18541;DHT22;9400;50.924;5.328;2023-05-07T02:20:26;15.40;99.90
18541;DHT22;9400;50.924;5.328;2023-05-07T02:22:54;15.30;99.90
18541;DHT22;9400;50.924;5.328;2023-05-07T02:25:22;15.30;99.90
18541;DHT22;9400;50.924;5.328;2023-05-07T02:27:52;15.20;99.90
18541;DHT22;9400;50.924;5.328;2023-05-07T02:30:19;15.20;99.90
18541;DHT22;9400;50.924;5.328;2023-05-07T02:32:47;15.20;99.90
18541;DHT22;9400;50.924;5.328;2023-05-07T02:35:14;15.20;99.90
18541;DHT22;9400;50.924;5.328;2023-05-07T02:37:42;15.20;99.90
18541;DHT22;9400;50.924;5.328;2023-05-07T02:40:11;15.20;99.90
18541;DHT22;9400;50.924;5.328;2023-05-07T02:42:38;15.30;99.90
18541;DHT22;9400;50.924;5.328;2023-05-07T02:45:08;15.30;99.90
18541;DHT22;9400;50.924;5.328;2023-05-07T02:47:36;15.30;99.90
18541;DHT22;9400;50.924;5.328;2023-05-07T02:50:06;15.40;99.90
18541;DHT22;9400;50.924;5.328;2023-05-07T02:52:34;15.40;99.90
18541;DHT22;9400;50.924;5.328;2023-05-07T02:55:01;15.50;99.90
18541;DHT22;9400;50.924;5.328;2023-05-07T02:57:29;15.50;99.90
18541;DHT22;9400;50.924;5.328;2023-05-07T02:59:58;15.40;99.90
18541;DHT22;9400;50.924;5.328;2023-05-07T03:02:27;15.40;99.90
18541;DHT22;9400;50.924;5.328;2023-05-07T03:04:55;15.40;99.90
18541;DHT22;9400;50.924;5.328;2023-05-07T03:07:23;15.30;99.90
18541;DHT22;9400;50.924;5.328;2023-05-07T03:09:50;15.30;99.90
18541;DHT22;9400;50.924;5.328;2023-05-07T03:12:18;15.30;99.90
18541;DHT22;9400;50.924;5.328;2023-05-07T03:14:46;15.40;99.90
18541;DHT22;9400;50.924;5.328;2023-05-07T03:17:13;15.40;99.90
18541;DHT22;9400;50.924;5.328;2023-05-07T03:19:43;15.40;99.90
18541;DHT22;9400;50.924;5.328;2023-05-07T03:22:11;15.20;99.90
18541;DHT22;9400;50.924;5.328;2023-05-07T03:24:38;15.20;99.90
18541;DHT22;9400;50.924;5.328;2023-05-07T03:27:06;15.30;99.90
18541;DHT22;9400;50.924;5.328;2023-05-07T03:29:33;15.30;99.90
18541;DHT22;9400;50.924;5.328;2023-05-07T03:32:01;15.30;99.90
18541;DHT22;9400;50.924;5.328;2023-05-07T03:34:28;15.40;99.90
18541;DHT22;9400;50.924;5.328;2023-05-07T03:36:58;15.40;99.90
18541;DHT22;9400;50.924;5.328;2023-05-07T03:39:26;15.40;99.90
18541;DHT22;9400;50.924;5.328;2023-05-07T03:41:53;15.40;99.90
18541;DHT22;9400;50.924;5.328;2023-05-07T03:44:21;15.30;99.90
18541;DHT22;9400;50.924;5.328;2023-05-07T03:46:48;15.20;99.90
18541;DHT22;9400;50.924;5.328;2023-05-07T03:49:16;15.10;99.90
18541;DHT22;9400;50.924;5.328;2023-05-07T03:51:43;15.00;99.90
18541;DHT22;9400;50.924;5.328;2023-05-07T03:54:12;15.10;99.90
18541;DHT22;9400;50.924;5.328;2023-05-07T03:56:40;15.10;99.90
18541;DHT22;9400;50.924;5.328;2023-05-07T03:59:07;15.20;99.90
18541;DHT22;9400;50.924;5.328;2023-05-07T04:01:35;15.30;99.90
18541;DHT22;9400;50.924;5.328;2023-05-07T04:04:02;15.30;99.90
18541;DHT22;9400;50.924;5.328;2023-05-07T04:06:30;15.30;99.90
18541;DHT22;9400;50.924;5.328;2023-05-07T04:08:57;15.30;99.90
18541;DHT22;9400;50.924;5.328;2023-05-07T04:11:27;15.20;99.90
18541;DHT22;9400;50.924;5.328;2023-05-07T04:13:55;15.30;99.90
18541;DHT22;9400;50.924;5.328;2023-05-07T04:16:22;15.40;99.90
18541;DHT22;9400;50.924;5.328;2023-05-07T04:18:50;15.30;99.90
18541;DHT22;9400;50.924;5.328;2023-05-07T04:21:19;15.30;99.90
18541;DHT22;9400;50.924;5.328;2023-05-07T04:23:47;15.40;99.90
18541;DHT22;9400;50.924;5.328;2023-05-07T04:26:18;15.50;99.90
18541;DHT22;9400;50.924;5.328;2023-05-07T04:28:48;15.50;99.90
18541;DHT22;9400;50.924;5.328;2023-05-07T04:31:17;15.50;99.90
18541;DHT22;9400;50.924;5.328;2023-05-07T04:33:44;15.50;99.90
18541;DHT22;9400;50.924;5.328;2023-05-07T04:36:12;15.50;99.90
18541;DHT22;9400;50.924;5.328;2023-05-07T04:38:40;15.60;99.90
18541;DHT22;9400;50.924;5.328;2023-05-07T04:41:09;15.60;99.90
18541;DHT22;9400;50.924;5.328;2023-05-07T04:43:37;15.60;99.90
18541;DHT22;9400;50.924;5.328;2023-05-07T04:46:06;15.50;99.90
18541;DHT22;9400;50.924;5.328;2023-05-07T04:48:33;15.60;99.90
18541;DHT22;9400;50.924;5.328;2023-05-07T04:51:00;15.60;99.90
18541;DHT22;9400;50.924;5.328;2023-05-07T04:53:29;15.60;99.90
18541;DHT22;9400;50.924;5.328;2023-05-07T04:55:57;15.60;99.90
18541;DHT22;9400;50.924;5.328;2023-05-07T04:58:24;15.60;99.90
18541;DHT22;9400;50.924;5.328;2023-05-07T05:00:52;15.60;99.90
18541;DHT22;9400;50.924;5.328;2023-05-07T05:03:21;15.70;99.90
18541;DHT22;9400;50.924;5.328;2023-05-07T05:05:50;15.80;99.90
18541;DHT22;9400;50.924;5.328;2023-05-07T05:08:18;15.70;99.90
18541;DHT22;9400;50.924;5.328;2023-05-07T05:10:46;15.80;99.90
18541;DHT22;9400;50.924;5.328;2023-05-07T05:13:14;15.70;99.90
18541;DHT22;9400;50.924;5.328;2023-05-07T05:15:42;15.80;99.90
18541;DHT22;9400;50.924;5.328;2023-05-07T05:18:09;15.90;99.90
18541;DHT22;9400;50.924;5.328;2023-05-07T05:20:39;15.80;99.90
18541;DHT22;9400;50.924;5.328;2023-05-07T05:23:07;15.80;99.90
18541;DHT22;9400;50.924;5.328;2023-05-07T05:25:35;15.80;99.90
18541;DHT22;9400;50.924;5.328;2023-05-07T05:28:03;15.80;99.90
18541;DHT22;9400;50.924;5.328;2023-05-07T05:30:30;15.80;99.90
18541;DHT22;9400;50.924;5.328;2023-05-07T05:32:58;15.80;99.90
18541;DHT22;9400;50.924;5.328;2023-05-07T05:35:25;16.00;99.90
18541;DHT22;9400;50.924;5.328;2023-05-07T05:37:55;16.20;99.90
18541;DHT22;9400;50.924;5.328;2023-05-07T05:40:23;16.20;99.90
18541;DHT22;9400;50.924;5.328;2023-05-07T05:42:51;16.10;99.90
18541;DHT22;9400;50.924;5.328;2023-05-07T05:45:18;16.10;99.90
18541;DHT22;9400;50.924;5.328;2023-05-07T05:47:46;16.20;99.90
18541;DHT22;9400;50.924;5.328;2023-05-07T05:50:14;16.30;99.90
18541;DHT22;9400;50.924;5.328;2023-05-07T05:52:41;16.50;99.90
18541;DHT22;9400;50.924;5.328;2023-05-07T05:55:10;16.60;99.90
18541;DHT22;9400;50.924;5.328;2023-05-07T05:57:38;16.80;99.90
18541;DHT22;9400;50.924;5.328;2023-05-07T06:00:07;16.90;99.90
18541;DHT22;9400;50.924;5.328;2023-05-07T06:02:36;16.90;99.90
18541;DHT22;9400;50.924;5.328;2023-05-07T06:05:05;16.90;99.90
18541;DHT22;9400;50.924;5.328;2023-05-07T06:07:33;17.00;99.90
18541;DHT22;9400;50.924;5.328;2023-05-07T06:10:00;17.00;99.90
18541;DHT22;9400;50.924;5.328;2023-05-07T06:12:29;17.10;99.90
18541;DHT22;9400;50.924;5.328;2023-05-07T06:14:57;17.20;99.90
18541;DHT22;9400;50.924;5.328;2023-05-07T06:17:25;17.30;99.90
18541;DHT22;9400;50.924;5.328;2023-05-07T06:19:53;17.30;99.90
18541;DHT22;9400;50.924;5.328;2023-05-07T06:22:20;17.50;99.90
18541;DHT22;9400;50.924;5.328;2023-05-07T06:24:48;17.50;99.90
18541;DHT22;9400;50.924;5.328;2023-05-07T06:27:15;17.60;99.90
18541;DHT22;9400;50.924;5.328;2023-05-07T06:29:45;17.70;99.90
18541;DHT22;9400;50.924;5.328;2023-05-07T06:32:14;17.80;99.90
18541;DHT22;9400;50.924;5.328;2023-05-07T06:34:43;17.80;99.90
18541;DHT22;9400;50.924;5.328;2023-05-07T06:37:11;17.90;99.90
18541;DHT22;9400;50.924;5.328;2023-05-07T06:39:38;18.00;99.90
18541;DHT22;9400;50.924;5.328;2023-05-07T06:42:06;17.90;99.90
18541;DHT22;9400;50.924;5.328;2023-05-07T06:44:33;18.00;99.90
18541;DHT22;9400;50.924;5.328;2023-05-07T06:47:02;17.80;99.90
18541;DHT22;9400;50.924;5.328;2023-05-07T06:49:31;17.80;99.90
18541;DHT22;9400;50.924;5.328;2023-05-07T06:51:59;18.00;99.90
18541;DHT22;9400;50.924;5.328;2023-05-07T06:54:26;17.90;99.90
18541;DHT22;9400;50.924;5.328;2023-05-07T06:56:54;17.90;99.90
18541;DHT22;9400;50.924;5.328;2023-05-07T06:59:22;18.10;99.90
18541;DHT22;9400;50.924;5.328;2023-05-07T07:01:50;18.00;99.90
18541;DHT22;9400;50.924;5.328;2023-05-07T07:04:19;18.10;99.90
18541;DHT22;9400;50.924;5.328;2023-05-07T07:06:49;18.20;99.90
18541;DHT22;9400;50.924;5.328;2023-05-07T07:09:16;18.50;99.90
18541;DHT22;9400;50.924;5.328;2023-05-07T07:11:43;18.60;99.90
18541;DHT22;9400;50.924;5.328;2023-05-07T07:14:11;18.80;99.90
18541;DHT22;9400;50.924;5.328;2023-05-07T07:16:39;18.80;99.90
18541;DHT22;9400;50.924;5.328;2023-05-07T07:19:06;18.80;99.90
18541;DHT22;9400;50.924;5.328;2023-05-07T07:21:36;18.80;99.90
18541;DHT22;9400;50.924;5.328;2023-05-07T07:24:04;18.80;99.90
18541;DHT22;9400;50.924;5.328;2023-05-07T07:26:31;18.90;99.90
18541;DHT22;9400;50.924;5.328;2023-05-07T07:29:00;18.90;99.90
18541;DHT22;9400;50.924;5.328;2023-05-07T07:31:27;19.10;99.90
18541;DHT22;9400;50.924;5.328;2023-05-07T07:33:56;19.30;99.90
18541;DHT22;9400;50.924;5.328;2023-05-07T07:36:23;19.50;99.90
18541;DHT22;9400;50.924;5.328;2023-05-07T07:38:54;19.50;99.90
18541;DHT22;9400;50.924;5.328;2023-05-07T07:41:22;19.30;99.90
18541;DHT22;9400;50.924;5.328;2023-05-07T07:43:49;19.40;99.90
18541;DHT22;9400;50.924;5.328;2023-05-07T07:46:17;19.40;99.90
18541;DHT22;9400;50.924;5.328;2023-05-07T07:48:45;19.70;99.90
18541;DHT22;9400;50.924;5.328;2023-05-07T07:51:13;19.70;99.90
18541;DHT22;9400;50.924;5.328;2023-05-07T07:53:40;19.80;99.90
18541;DHT22;9400;50.924;5.328;2023-05-07T07:56:10;20.10;99.90
18541;DHT22;9400;50.924;5.328;2023-05-07T07:58:38;20.10;99.90
18541;DHT22;9400;50.924;5.328;2023-05-07T08:01:05;20.10;99.90
18541;DHT22;9400;50.924;5.328;2023-05-07T08:03:33;19.80;99.90
18541;DHT22;9400;50.924;5.328;2023-05-07T08:06:01;19.90;99.90
18541;DHT22;9400;50.924;5.328;2023-05-07T08:08:29;20.30;99.90
18541;DHT22;9400;50.924;5.328;2023-05-07T08:11:00;20.10;99.90
18541;DHT22;9400;50.924;5.328;2023-05-07T08:13:29;20.30;99.90
18541;DHT22;9400;50.924;5.328;2023-05-07T08:15:57;20.50;99.90
18541;DHT22;9400;50.924;5.328;2023-05-07T08:18:25;20.50;99.90
18541;DHT22;9400;50.924;5.328;2023-05-07T08:20:54;20.60;99.90
18541;DHT22;9400;50.924;5.328;2023-05-07T08:23:22;20.60;99.90
18541;DHT22;9400;50.924;5.328;2023-05-07T08:25:50;20.40;99.90
18541;DHT22;9400;50.924;5.328;2023-05-07T08:28:18;20.70;99.90
18541;DHT22;9400;50.924;5.328;2023-05-07T08:30:50;20.90;99.90
18541;DHT22;9400;50.924;5.328;2023-05-07T08:33:18;20.80;99.90
18541;DHT22;9400;50.924;5.328;2023-05-07T08:35:45;21.10;99.90
18541;DHT22;9400;50.924;5.328;2023-05-07T08:38:13;21.10;99.90
18541;DHT22;9400;50.924;5.328;2023-05-07T08:40:40;21.20;99.90
18541;DHT22;9400;50.924;5.328;2023-05-07T08:43:08;21.30;99.90
18541;DHT22;9400;50.924;5.328;2023-05-07T08:45:39;21.20;99.90
18541;DHT22;9400;50.924;5.328;2023-05-07T08:48:17;21.20;99.90
18541;DHT22;9400;50.924;5.328;2023-05-07T08:50:44;21.30;99.90
18541;DHT22;9400;50.924;5.328;2023-05-07T08:53:12;21.20;99.90
18541;DHT22;9400;50.924;5.328;2023-05-07T08:55:40;21.30;99.90
18541;DHT22;9400;50.924;5.328;2023-05-07T08:58:09;21.40;99.90
18541;DHT22;9400;50.924;5.328;2023-05-07T09:00:39;21.60;99.90
18541;DHT22;9400;50.924;5.328;2023-05-07T09:03:11;21.70;99.90
18541;DHT22;9400;50.924;5.328;2023-05-07T09:05:40;21.60;99.90
18541;DHT22;9400;50.924;5.328;2023-05-07T09:08:10;21.50;99.90
18541;DHT22;9400;50.924;5.328;2023-05-07T09:10:37;21.80;99.90
18541;DHT22;9400;50.924;5.328;2023-05-07T09:13:05;21.80;99.90
18541;DHT22;9400;50.924;5.328;2023-05-07T09:15:32;21.70;99.90
18541;DHT22;9400;50.924;5.328;2023-05-07T09:18:00;21.90;99.90
18541;DHT22;9400;50.924;5.328;2023-05-07T09:20:31;22.10;99.90
18541;DHT22;9400;50.924;5.328;2023-05-07T09:22:59;22.10;99.90
18541;DHT22;9400;50.924;5.328;2023-05-07T09:25:31;22.10;99.90
18541;DHT22;9400;50.924;5.328;2023-05-07T09:27:59;22.20;99.90
18541;DHT22;9400;50.924;5.328;2023-05-07T09:30:28;22.20;99.90
18541;DHT22;9400;50.924;5.328;2023-05-07T09:32:57;21.90;99.90
18541;DHT22;9400;50.924;5.328;2023-05-07T09:35:25;21.90;99.90
18541;DHT22;9400;50.924;5.328;2023-05-07T09:37:57;22.00;99.90
18541;DHT22;9400;50.924;5.328;2023-05-07T09:40:25;22.10;99.90
18541;DHT22;9400;50.924;5.328;2023-05-07T09:42:54;22.10;99.90
18541;DHT22;9400;50.924;5.328;2023-05-07T09:45:22;22.20;99.90
18541;DHT22;9400;50.924;5.328;2023-05-07T09:47:55;22.20;99.90
18541;DHT22;9400;50.924;5.328;2023-05-07T09:50:27;22.40;99.90
18541;DHT22;9400;50.924;5.328;2023-05-07T09:52:56;22.40;99.90
18541;DHT22;9400;50.924;5.328;2023-05-07T09:55:24;22.20;99.90
18541;DHT22;9400;50.924;5.328;2023-05-07T09:57:53;21.80;99.90
18541;DHT22;9400;50.924;5.328;2023-05-07T10:00:22;21.80;99.90
18541;DHT22;9400;50.924;5.328;2023-05-07T10:02:51;21.70;99.90
18541;DHT22;9400;50.924;5.328;2023-05-07T10:05:19;21.50;99.90
18541;DHT22;9400;50.924;5.328;2023-05-07T10:07:46;21.40;99.90
18541;DHT22;9400;50.924;5.328;2023-05-07T10:10:17;21.10;99.90
18541;DHT22;9400;50.924;5.328;2023-05-07T10:12:47;20.90;99.90
18541;DHT22;9400;50.924;5.328;2023-05-07T10:15:14;20.80;99.90
18541;DHT22;9400;50.924;5.328;2023-05-07T10:17:42;20.70;99.90
18541;DHT22;9400;50.924;5.328;2023-05-07T10:20:11;20.80;99.90
18541;DHT22;9400;50.924;5.328;2023-05-07T10:22:41;20.50;99.90
18541;DHT22;9400;50.924;5.328;2023-05-07T10:25:14;20.50;99.90
18541;DHT22;9400;50.924;5.328;2023-05-07T10:27:45;20.50;99.90
18541;DHT22;9400;50.924;5.328;2023-05-07T10:30:21;20.50;99.90
18541;DHT22;9400;50.924;5.328;2023-05-07T10:32:55;20.60;99.90
18541;DHT22;9400;50.924;5.328;2023-05-07T10:35:26;20.50;99.90
18541;DHT22;9400;50.924;5.328;2023-05-07T10:37:58;20.30;99.90
18541;DHT22;9400;50.924;5.328;2023-05-07T10:40:25;20.30;99.90
18541;DHT22;9400;50.924;5.328;2023-05-07T10:42:58;20.40;99.90
18541;DHT22;9400;50.924;5.328;2023-05-07T10:45:27;20.20;99.90
18541;DHT22;9400;50.924;5.328;2023-05-07T10:48:08;20.20;99.90
18541;DHT22;9400;50.924;5.328;2023-05-07T10:50:39;20.30;99.90
18541;DHT22;9400;50.924;5.328;2023-05-07T10:53:23;20.30;99.90
18541;DHT22;9400;50.924;5.328;2023-05-07T10:56:26;20.10;99.90
18541;DHT22;9400;50.924;5.328;2023-05-07T10:59:30;20.00;99.90
18541;DHT22;9400;50.924;5.328;2023-05-07T11:02:00;20.30;99.90
18541;DHT22;9400;50.924;5.328;2023-05-07T11:04:29;20.40;99.90
18541;DHT22;9400;50.924;5.328;2023-05-07T11:07:26;20.50;99.90
18541;DHT22;9400;50.924;5.328;2023-05-07T11:10:02;20.30;99.90
18541;DHT22;9400;50.924;5.328;2023-05-07T11:12:49;20.30;99.90
18541;DHT22;9400;50.924;5.328;2023-05-07T11:15:37;20.10;99.90
18541;DHT22;9400;50.924;5.328;2023-05-07T11:18:06;20.00;99.90
18541;DHT22;9400;50.924;5.328;2023-05-07T11:20:54;20.00;99.90
18541;DHT22;9400;50.924;5.328;2023-05-07T11:26:48;19.70;99.90
18541;DHT22;9400;50.924;5.328;2023-05-07T11:29:17;19.70;99.90
18541;DHT22;9400;50.924;5.328;2023-05-07T11:31:50;19.70;99.90
18541;DHT22;9400;50.924;5.328;2023-05-07T11:34:21;19.60;99.90
18541;DHT22;9400;50.924;5.328;2023-05-07T11:36:49;19.50;99.90
18541;DHT22;9400;50.924;5.328;2023-05-07T11:39:28;19.40;99.90
18541;DHT22;9400;50.924;5.328;2023-05-07T11:41:57;19.30;99.90
18541;DHT22;9400;50.924;5.328;2023-05-07T11:44:25;19.20;99.90
18541;DHT22;9400;50.924;5.328;2023-05-07T11:46:54;19.20;99.90
18541;DHT22;9400;50.924;5.328;2023-05-07T11:49:25;19.20;99.90
18541;DHT22;9400;50.924;5.328;2023-05-07T11:51:54;19.10;99.90
18541;DHT22;9400;50.924;5.328;2023-05-07T11:54:21;19.40;99.90
18541;DHT22;9400;50.924;5.328;2023-05-07T11:56:49;19.30;99.90
18541;DHT22;9400;50.924;5.328;2023-05-07T11:59:20;19.40;99.90
18541;DHT22;9400;50.924;5.328;2023-05-07T12:01:47;19.40;99.90
18541;DHT22;9400;50.924;5.328;2023-05-07T12:04:20;19.50;99.90
18541;DHT22;9400;50.924;5.328;2023-05-07T12:06:48;19.70;99.90
18541;DHT22;9400;50.924;5.328;2023-05-07T12:09:17;19.80;99.90
18541;DHT22;9400;50.924;5.328;2023-05-07T12:11:46;19.90;99.90
18541;DHT22;9400;50.924;5.328;2023-05-07T12:14:14;19.80;99.90
18541;DHT22;9400;50.924;5.328;2023-05-07T12:16:43;19.90;99.90
18541;DHT22;9400;50.924;5.328;2023-05-07T12:19:13;19.90;99.90
18541;DHT22;9400;50.924;5.328;2023-05-07T12:21:43;19.80;99.90
18541;DHT22;9400;50.924;5.328;2023-05-07T12:24:10;19.60;99.90
18541;DHT22;9400;50.924;5.328;2023-05-07T12:26:38;19.80;99.90
18541;DHT22;9400;50.924;5.328;2023-05-07T12:29:07;19.90;99.90
18541;DHT22;9400;50.924;5.328;2023-05-07T12:31:35;19.80;99.90
18541;DHT22;9400;50.924;5.328;2023-05-07T12:34:02;19.80;99.90
18541;DHT22;9400;50.924;5.328;2023-05-07T12:36:37;19.80;99.90
18541;DHT22;9400;50.924;5.328;2023-05-07T12:39:07;19.90;99.90
18541;DHT22;9400;50.924;5.328;2023-05-07T12:41:52;20.10;99.90
18541;DHT22;9400;50.924;5.328;2023-05-07T12:44:23;19.90;99.90
18541;DHT22;9400;50.924;5.328;2023-05-07T12:46:51;20.00;99.90
18541;DHT22;9400;50.924;5.328;2023-05-07T12:49:19;19.90;99.90
18541;DHT22;9400;50.924;5.328;2023-05-07T12:51:47;19.90;99.90
18541;DHT22;9400;50.924;5.328;2023-05-07T12:54:29;20.00;99.90
18541;DHT22;9400;50.924;5.328;2023-05-07T12:57:03;20.20;99.90
18541;DHT22;9400;50.924;5.328;2023-05-07T12:59:33;20.10;99.90
18541;DHT22;9400;50.924;5.328;2023-05-07T13:02:00;20.10;99.90
18541;DHT22;9400;50.924;5.328;2023-05-07T13:04:28;20.20;99.90
18541;DHT22;9400;50.924;5.328;2023-05-07T13:06:56;20.30;99.90
18541;DHT22;9400;50.924;5.328;2023-05-07T13:09:24;20.30;99.90
18541;DHT22;9400;50.924;5.328;2023-05-07T13:11:56;20.20;99.90
18541;DHT22;9400;50.924;5.328;2023-05-07T13:14:25;20.30;99.90
18541;DHT22;9400;50.924;5.328;2023-05-07T13:16:53;20.30;99.90
18541;DHT22;9400;50.924;5.328;2023-05-07T13:19:20;20.40;99.90
18541;DHT22;9400;50.924;5.328;2023-05-07T13:21:48;20.50;99.90
18541;DHT22;9400;50.924;5.328;2023-05-07T13:24:16;20.50;99.90
18541;DHT22;9400;50.924;5.328;2023-05-07T13:26:43;20.50;99.90
18541;DHT22;9400;50.924;5.328;2023-05-07T13:29:13;20.60;99.90
18541;DHT22;9400;50.924;5.328;2023-05-07T13:31:41;20.70;99.90
18541;DHT22;9400;50.924;5.328;2023-05-07T13:34:10;20.90;99.90
18541;DHT22;9400;50.924;5.328;2023-05-07T13:36:37;20.80;99.90
18541;DHT22;9400;50.924;5.328;2023-05-07T13:39:05;21.00;99.90
18541;DHT22;9400;50.924;5.328;2023-05-07T13:41:33;21.10;99.90
18541;DHT22;9400;50.924;5.328;2023-05-07T13:44:01;20.90;99.90
18541;DHT22;9400;50.924;5.328;2023-05-07T13:46:29;20.80;99.90
18541;DHT22;9400;50.924;5.328;2023-05-07T13:48:57;20.80;99.90
18541;DHT22;9400;50.924;5.328;2023-05-07T13:51:24;20.90;99.90
18541;DHT22;9400;50.924;5.328;2023-05-07T13:53:53;20.70;99.90
18541;DHT22;9400;50.924;5.328;2023-05-07T13:56:20;20.60;99.90
18541;DHT22;9400;50.924;5.328;2023-05-07T13:58:49;20.70;99.90
18541;DHT22;9400;50.924;5.328;2023-05-07T14:01:16;21.00;99.90
18541;DHT22;9400;50.924;5.328;2023-05-07T14:03:46;21.10;99.90
18541;DHT22;9400;50.924;5.328;2023-05-07T14:06:13;21.30;99.90
18541;DHT22;9400;50.924;5.328;2023-05-07T14:08:41;21.20;99.90
18541;DHT22;9400;50.924;5.328;2023-05-07T14:11:09;21.10;99.90
18541;DHT22;9400;50.924;5.328;2023-05-07T14:13:36;21.20;99.90
18541;DHT22;9400;50.924;5.328;2023-05-07T14:16:05;21.10;99.90
18541;DHT22;9400;50.924;5.328;2023-05-07T14:18:33;21.20;99.90
18541;DHT22;9400;50.924;5.328;2023-05-07T14:21:04;21.10;99.90
18541;DHT22;9400;50.924;5.328;2023-05-07T14:23:35;21.30;99.90
18541;DHT22;9400;50.924;5.328;2023-05-07T14:26:03;21.50;99.90
18541;DHT22;9400;50.924;5.328;2023-05-07T14:28:30;21.30;99.90
18541;DHT22;9400;50.924;5.328;2023-05-07T14:30:58;21.10;99.90
18541;DHT22;9400;50.924;5.328;2023-05-07T14:33:25;21.30;99.90
18541;DHT22;9400;50.924;5.328;2023-05-07T14:35:53;21.20;99.90
18541;DHT22;9400;50.924;5.328;2023-05-07T14:38:22;21.10;99.90
18541;DHT22;9400;50.924;5.328;2023-05-07T14:40:49;21.10;99.90
18541;DHT22;9400;50.924;5.328;2023-05-07T14:43:17;21.20;99.90
18541;DHT22;9400;50.924;5.328;2023-05-07T14:45:46;21.10;99.90
18541;DHT22;9400;50.924;5.328;2023-05-07T14:48:13;21.10;99.90
18541;DHT22;9400;50.924;5.328;2023-05-07T14:50:41;21.10;99.90
18541;DHT22;9400;50.924;5.328;2023-05-07T14:53:10;21.10;99.90
18541;DHT22;9400;50.924;5.328;2023-05-07T14:55:39;20.80;99.90
18541;DHT22;9400;50.924;5.328;2023-05-07T14:58:07;20.80;99.90
18541;DHT22;9400;50.924;5.328;2023-05-07T15:00:35;20.60;99.90
18541;DHT22;9400;50.924;5.328;2023-05-07T15:03:05;20.70;99.90
18541;DHT22;9400;50.924;5.328;2023-05-07T15:05:33;20.70;99.90
18541;DHT22;9400;50.924;5.328;2023-05-07T15:08:00;20.80;99.90
18541;DHT22;9400;50.924;5.328;2023-05-07T15:10:28;20.90;99.90
18541;DHT22;9400;50.924;5.328;2023-05-07T15:12:57;20.90;99.90
18541;DHT22;9400;50.924;5.328;2023-05-07T15:15:25;21.00;99.90
18541;DHT22;9400;50.924;5.328;2023-05-07T15:17:53;20.70;99.90
18541;DHT22;9400;50.924;5.328;2023-05-07T15:20:20;20.60;99.90
18541;DHT22;9400;50.924;5.328;2023-05-07T15:22:48;20.90;99.90
18541;DHT22;9400;50.924;5.328;2023-05-07T15:25:18;20.90;99.90
18541;DHT22;9400;50.924;5.328;2023-05-07T15:27:46;21.00;99.90
18541;DHT22;9400;50.924;5.328;2023-05-07T15:30:15;21.00;99.90
18541;DHT22;9400;50.924;5.328;2023-05-07T15:32:46;20.90;99.90
18541;DHT22;9400;50.924;5.328;2023-05-07T15:35:14;21.10;99.90
18541;DHT22;9400;50.924;5.328;2023-05-07T15:37:42;21.20;99.90
18541;DHT22;9400;50.924;5.328;2023-05-07T15:40:09;21.20;99.90
18541;DHT22;9400;50.924;5.328;2023-05-07T15:42:38;21.60;99.90
18541;DHT22;9400;50.924;5.328;2023-05-07T15:45:07;21.50;99.90
18541;DHT22;9400;50.924;5.328;2023-05-07T15:47:37;21.40;99.90
18541;DHT22;9400;50.924;5.328;2023-05-07T15:50:06;21.80;99.90
18541;DHT22;9400;50.924;5.328;2023-05-07T15:52:34;22.00;99.90
18541;DHT22;9400;50.924;5.328;2023-05-07T15:55:01;21.80;99.90
18541;DHT22;9400;50.924;5.328;2023-05-07T15:57:31;21.90;99.90
18541;DHT22;9400;50.924;5.328;2023-05-07T15:59:59;21.70;99.90